< < Back
Terminal Aerodrome Forecast


Current Version              Previous Versions:   1  2  3  4  5  6  7  8  9  

Terminal Aerodrome Forecast

278
FTUS44 KHUN 221722
TAFHSV
TAF
KHSV 221722Z 2218/2318 28010KT P6SM SCT040 SCT250
     FM230000 00000KT P6SM SKC
      TEMPO 2308/2312 3SM BR
     FM231500 28008KT P6SM SCT040 SCT250=



Latest METAR

033
SAUS80 KWBC 231100 RRA
MTRHSV
METAR KHSV 231053Z 00000KT 6SM BR FEW250 23/22 A3003 RMK AO2 SLP160
FIRST T02280217


USA.gov is the U.S. government's official web portal to all federal, state and local government web resources and services.